Time;durP1;ratioP1;P1;durP2;ratioP2;P2;SDS_P1;SDS_P2;PMS_P1;PMS_P2;Temp;Humidity;BMP_temperature;BMP_pressure;BME280_temperature;BME280_humidity;BME280_pressure;Samples;Min_cycle;Max_cycle;Signal;HPM_P1;HPM_P2
2021/05/20 00:01:05;;;;;;;90.43;40.47;;;;;;;29.58;63.04;100785.28;5069890;27;69929;-39
2021/05/20 00:03:36;;;;;;;109.95;45.28;;;;;;;29.67;62.25;100788.63;5069100;27;65142;-39
2021/05/20 00:06:06;;;;;;;99.93;43.97;;;;;;;29.71;62.83;100779.03;5067451;27;70423;-39
2021/05/20 00:08:36;;;;;;;93.53;39.17;;;;;;;29.80;63.87;100783.16;5071027;27;66127;-39
2021/05/20 00:11:07;;;;;;;84.03;37.15;;;;;;;29.87;63.87;100788.53;5062413;28;70089;-38
2021/05/20 00:13:37;;;;;;;85.85;36.10;;;;;;;29.90;65.77;100783.53;5064725;27;65937;-39
2021/05/20 00:16:08;;;;;;;72.38;33.35;;;;;;;30.01;65.44;100800.94;5063007;27;69705;-40
2021/05/20 00:18:39;;;;;;;68.72;31.60;;;;;;;30.06;65.15;100799.25;5062739;27;66453;-40
2021/05/20 00:21:10;;;;;;;75.68;31.27;;;;;;;30.11;65.93;100800.47;5066019;28;69322;-39
2021/05/20 00:23:40;;;;;;;61.45;28.73;;;;;;;30.13;66.15;100803.78;5064299;28;65699;-39
2021/05/20 00:26:13;;;;;;;66.72;29.00;;;;;;;30.15;64.98;100802.53;5062779;27;70236;-38
2021/05/20 00:28:43;;;;;;;70.22;27.70;;;;;;;30.31;64.82;100816.59;5059801;28;64973;-39
2021/05/20 00:31:13;;;;;;;65.50;28.30;;;;;;;30.34;64.03;100805.34;5068325;28;70130;-39
2021/05/20 00:33:44;;;;;;;59.42;26.75;;;;;;;30.39;64.31;100809.06;5067791;27;66534;-39
2021/05/20 00:36:15;;;;;;;58.50;25.87;;;;;;;30.38;63.65;100806.59;5065809;28;69744;-40
2021/05/20 00:38:45;;;;;;;51.22;25.25;;;;;;;30.47;63.47;100813.38;5067420;28;65300;-40
2021/05/20 00:41:15;;;;;;;56.22;24.58;;;;;;;30.51;63.24;100817.31;5060124;28;69386;-39
2021/05/20 00:43:46;;;;;;;38.95;22.63;;;;;;;30.52;63.34;100812.72;5066887;27;66057;-39
2021/05/20 00:46:16;;;;;;;45.95;23.00;;;;;;;30.60;62.63;100826.81;5067385;27;69980;-39
2021/05/20 00:48:47;;;;;;;39.58;23.38;;;;;;;30.62;63.00;100829.28;5071225;27;66396;-40
2021/05/20 00:51:17;;;;;;;47.40;22.38;;;;;;;30.65;62.89;100828.88;5064215;27;69568;-39
2021/05/20 00:53:51;;;;;;;40.57;22.40;;;;;;;30.66;62.83;100825.94;5068833;27;65904;-39
2021/05/20 00:56:23;;;;;;;44.30;22.45;;;;;;;30.69;62.41;100830.09;5061621;28;69491;-39
2021/05/20 00:58:54;;;;;;;41.08;21.20;;;;;;;30.68;62.54;100834.69;5067760;28;65337;-40
2021/05/20 01:01:24;;;;;;;33.67;20.88;;;;;;;30.73;61.90;100831.31;5066695;28;69755;-39
2021/05/20 01:03:56;;;;;;;31.25;20.00;;;;;;;30.75;61.97;100828.38;5073058;27;66189;-39
2021/05/20 01:06:27;;;;;;;39.50;19.95;;;;;;;30.69;62.01;100821.97;5071262;27;69866;-39
2021/05/20 01:08:57;;;;;;;34.83;19.58;;;;;;;30.72;61.73;100825.03;5061230;27;66148;-39
2021/05/20 01:11:28;;;;;;;31.88;19.02;;;;;;;30.73;61.75;100818.59;5071158;28;69209;-39
2021/05/20 01:13:58;;;;;;;37.28;18.02;;;;;;;30.80;61.09;100823.16;5064163;27;65294;-40
2021/05/20 01:16:29;;;;;;;32.95;18.73;;;;;;;30.87;60.90;100830.19;5057213;27;69061;-39
2021/05/20 01:18:59;;;;;;;31.25;18.58;;;;;;;30.90;60.68;100828.91;5071980;27;65973;-38
2021/05/20 01:21:30;;;;;;;31.55;19.42;;;;;;;30.93;61.65;100831.19;5072223;27;69468;-39
2021/05/20 01:24:05;;;;;;;33.28;18.50;;;;;;;30.95;61.45;100829.06;5065364;27;66645;-40
2021/05/20 01:26:37;;;;;;;22.27;17.38;;;;;;;30.99;61.06;100838.41;5062204;27;71704;-39
2021/05/20 01:29:08;;;;;;;23.73;17.25;;;;;;;30.93;61.27;100826.59;5064273;27;65229;-39
2021/05/20 01:31:39;;;;;;;25.35;16.92;;;;;;;31.00;61.28;100841.94;5066863;28;69997;-39
2021/05/20 01:34:09;;;;;;;33.58;18.17;;;;;;;31.07;61.40;100848.16;5074618;28;66121;-39
2021/05/20 01:36:40;;;;;;;27.25;17.00;;;;;;;30.92;60.94;100824.09;5065595;27;69830;-39
2021/05/20 01:39:11;;;;;;;22.75;16.90;;;;;;;31.11;60.50;100849.34;5061146;27;66064;-40
2021/05/20 01:41:42;;;;;;;30.63;16.40;;;;;;;31.10;60.32;100853.94;5067839;28;69988;-39
2021/05/20 01:44:15;;;;;;;22.58;16.48;;;;;;;31.15;60.34;100856.00;5067642;27;66192;-40
2021/05/20 01:46:46;;;;;;;24.90;15.88;;;;;;;31.19;60.34;100859.06;5075149;27;69426;-40
2021/05/20 01:49:21;;;;;;;19.90;15.98;;;;;;;31.21;60.41;100856.97;5072150;27;65230;-40
2021/05/20 01:51:51;;;;;;;28.38;16.65;;;;;;;31.24;60.47;100864.66;5068759;27;69754;-40
2021/05/20 01:54:28;;;;;;;19.67;15.70;;;;;;;31.25;59.98;100866.31;5068248;27;66496;-40
2021/05/20 01:57:00;;;;;;;20.02;15.00;;;;;;;31.11;60.38;100850.16;5063508;27;69769;-39
2021/05/20 01:59:42;;;;;;;24.60;15.73;;;;;;;31.29;59.65;100871.06;5069692;27;68560;-39
2021/05/20 02:02:13;;;;;;;16.10;14.30;;;;;;;31.30;60.01;100882.72;5064842;28;70152;-39
2021/05/20 02:04:43;;;;;;;22.75;14.50;;;;;;;31.19;59.58;100856.38;5066803;27;66662;-39
2021/05/20 02:07:14;;;;;;;18.88;14.18;;;;;;;31.34;59.70;100881.22;5069629;27;69841;-40
2021/05/20 02:09:47;;;;;;;19.27;13.68;;;;;;;31.31;59.54;100868.94;5065016;28;66604;-39
2021/05/20 02:12:18;;;;;;;19.70;13.73;;;;;;;31.38;59.30;100871.63;5071284;27;69692;-40
2021/05/20 02:14:49;;;;;;;16.60;13.95;;;;;;;31.38;59.69;100868.91;5070209;27;65960;-39
2021/05/20 02:17:20;;;;;;;13.80;12.50;;;;;;;31.42;59.58;100861.97;5069735;27;70302;-39
2021/05/20 02:19:53;;;;;;;20.23;14.05;;;;;;;31.45;58.99;100866.13;5023645;27;65225;-39
2021/05/20 02:22:27;;;;;;;19.80;13.18;;;;;;;31.47;59.15;100864.03;5061432;27;72012;-39
2021/05/20 02:24:58;;;;;;;14.52;12.43;;;;;;;31.49;59.08;100867.34;5059433;27;65265;-40
2021/05/20 02:27:30;;;;;;;17.20;12.48;;;;;;;31.49;58.90;100860.03;5068599;27;72225;-40
2021/05/20 02:30:01;;;;;;;14.57;12.00;;;;;;;31.46;59.36;100838.81;5062243;27;65893;-40
2021/05/20 02:32:34;;;;;;;13.38;12.00;;;;;;;31.50;58.86;100841.88;5061469;28;70555;-40
2021/05/20 02:35:11;;;;;;;12.20;11.02;;;;;;;31.59;58.50;100852.22;5069213;27;66608;-39
2021/05/20 02:37:55;;;;;;;11.90;10.35;;;;;;;31.59;58.36;100852.22;5060761;28;70513;-40
2021/05/20 02:40:26;;;;;;;10.77;9.82;;;;;;;31.60;58.80;100843.03;5066155;27;66670;-39
2021/05/20 02:43:02;;;;;;;11.65;10.60;;;;;;;31.65;58.16;100846.94;5061702;28;69162;-40
2021/05/20 02:45:35;;;;;;;11.90;10.27;;;;;;;31.61;58.45;100838.41;5063152;27;66543;-39
2021/05/20 02:48:07;;;;;;;11.18;10.10;;;;;;;31.67;58.42;100844.81;5063474;27;69901;-39
2021/05/20 02:50:38;;;;;;;;;;;;;;;31.45;58.95;100852.56;5067801;27;65364;-39
2021/05/20 02:53:09;;;;;;;12.10;10.05;;;;;;;31.71;58.61;100852.28;5057494;28;70656;-39
2021/05/20 02:55:40;;;;;;;10.13;9.13;;;;;;;31.75;58.01;100849.94;5064311;27;66070;-40
2021/05/20 02:58:30;;;;;;;9.45;8.70;;;;;;;31.80;58.22;100841.97;5063003;27;69509;-39
2021/05/20 03:01:01;;;;;;;10.27;9.37;;;;;;;31.81;58.02;100838.19;5064636;27;66376;-39
2021/05/20 03:03:32;;;;;;;10.20;9.15;;;;;;;31.85;57.72;100839.41;5062740;27;69650;-40
2021/05/20 03:06:03;;;;;;;9.35;8.57;;;;;;;31.90;57.56;100831.41;5069521;27;66277;-39
2021/05/20 03:08:34;;;;;;;10.13;9.07;;;;;;;31.92;57.55;100823.88;5072011;27;69076;-39
2021/05/20 03:11:08;;;;;;;9.45;8.60;;;;;;;31.89;57.70;100818.88;5071075;27;66534;-39
2021/05/20 03:13:39;;;;;;;10.77;8.57;;;;;;;31.94;57.48;100820.94;5063979;27;70014;-39
2021/05/20 03:16:11;;;;;;;9.25;8.43;;;;;;;32.00;57.82;100823.56;5064515;27;66081;-39
2021/05/20 03:18:42;;;;;;;8.90;8.10;;;;;;;32.02;57.43;100821.44;5063996;27;68995;-39
2021/05/20 03:21:14;;;;;;;9.40;8.50;;;;;;;32.08;57.68;100822.41;5070597;28;66354;-40
2021/05/20 03:23:49;;;;;;;8.35;7.57;;;;;;;32.11;57.39;100821.13;5066752;27;69429;-40
2021/05/20 03:26:24;;;;;;;8.52;7.70;;;;;;;32.14;57.36;100815.25;5021418;28;66124;-40
2021/05/20 03:28:58;;;;;;;8.68;7.97;;;;;;;32.10;57.51;100801.31;5067188;27;69776;-40
2021/05/20 03:31:32;;;;;;;7.38;6.80;;;;;;;32.19;56.84;100815.38;5070694;27;65308;-40
2021/05/20 03:34:06;;;;;;;8.30;7.60;;;;;;;32.21;56.91;100810.56;5070389;27;69834;-39
2021/05/20 03:36:37;;;;;;;8.00;7.40;;;;;;;32.25;56.67;100812.56;5068867;27;65904;-39
2021/05/20 03:39:14;;;;;;;8.75;7.80;;;;;;;32.27;57.04;100805.03;5068615;27;69237;-39
2021/05/20 03:41:45;;;;;;;8.48;7.57;;;;;;;32.30;56.74;100797.50;5075114;27;66381;-40
2021/05/20 03:44:18;;;;;;;8.23;7.50;;;;;;;32.33;56.72;100786.97;5075707;27;68787;-39
2021/05/20 03:46:49;;;;;;;7.43;6.85;;;;;;;32.32;56.79;100771.75;5064988;28;66145;-40
2021/05/20 03:49:21;;;;;;;8.07;7.38;;;;;;;32.30;56.31;100763.03;5064280;28;69272;-40
2021/05/20 03:51:52;;;;;;;7.13;6.55;;;;;;;32.40;56.85;100782.28;5065702;28;67329;-39
2021/05/20 03:54:24;;;;;;;7.47;6.78;;;;;;;32.43;56.51;100768.25;5069076;28;70084;-39
2021/05/20 03:56:57;;;;;;;7.55;6.95;;;;;;;32.45;56.52;100763.38;5072687;28;68397;-39
2021/05/20 03:59:28;;;;;;;6.72;6.22;;;;;;;32.49;56.06;100764.63;5066299;27;69101;-39
2021/05/20 04:01:59;;;;;;;6.75;6.05;;;;;;;32.47;56.37;100755.88;5066967;27;66008;-39
2021/05/20 04:04:31;;;;;;;9.68;6.55;;;;;;;32.53;56.04;100758.72;5063790;27;70395;-39
2021/05/20 04:07:06;;;;;;;5.75;5.35;;;;;;;32.56;55.95;100763.69;5067953;27;65248;-39
2021/05/20 04:09:39;;;;;;;6.70;6.20;;;;;;;32.61;55.95;100761.09;5073656;27;68991;-39
2021/05/20 04:12:12;;;;;;;6.45;5.97;;;;;;;32.57;56.04;100740.88;5070185;27;66022;-39
2021/05/20 04:14:43;;;;;;;6.25;5.80;;;;;;;32.59;56.11;100736.03;5075025;27;69189;-39
2021/05/20 04:17:16;;;;;;;6.22;5.72;;;;;;;32.66;55.95;100739.50;5067707;28;65387;-39
2021/05/20 04:19:47;;;;;;;7.20;6.20;;;;;;;32.63;55.73;100723.66;5067886;27;70642;-40
2021/05/20 04:22:20;;;;;;;5.97;5.38;;;;;;;32.73;55.92;100726.59;5060872;27;66722;-39
2021/05/20 04:24:53;;;;;;;5.80;5.40;;;;;;;32.75;55.88;100729.09;5066772;27;70494;-39
2021/05/20 04:27:25;;;;;;;5.35;5.05;;;;;;;32.75;55.91;100718.22;5070355;28;65212;-39
2021/05/20 04:29:58;;;;;;;5.47;5.07;;;;;;;32.66;55.35;100699.56;5072894;28;69455;-39
2021/05/20 04:32:42;;;;;;;5.93;5.43;;;;;;;32.82;55.71;100719.75;5067144;28;65944;-39
2021/05/20 04:35:12;;;;;;;6.18;5.30;;;;;;;32.84;55.33;100709.47;5070009;27;69535;-39
2021/05/20 04:37:43;;;;;;;7.43;5.05;;;;;;;32.85;55.75;100703.00;5072445;27;66096;-39
2021/05/20 04:40:21;;;;;;;5.53;5.07;;;;;;;32.90;55.35;100694.94;5063166;27;69523;-39
2021/05/20 04:42:55;;;;;;;5.00;4.60;;;;;;;32.92;55.39;100697.41;5063036;27;65955;-40
2021/05/20 04:45:26;;;;;;;8.25;4.85;;;;;;;32.93;55.37;100685.47;5063026;27;69986;-39
2021/05/20 04:47:57;;;;;;;;;;;;;;;32.71;55.47;100679.84;5060892;27;65072;-39
2021/05/20 04:50:33;;;;;;;5.78;4.60;;;;;;;32.93;55.09;100670.03;5072230;27;69322;-38
2021/05/20 04:53:08;;;;;;;4.45;4.15;;;;;;;33.02;54.86;100665.06;5070572;27;66268;-39
2021/05/20 04:55:39;;;;;;;4.68;4.38;;;;;;;33.00;54.93;100672.63;5060851;27;69990;-39
2021/05/20 04:58:11;;;;;;;4.78;4.32;;;;;;;33.03;54.85;100661.28;5055085;28;66365;-40
2021/05/20 05:00:47;;;;;;;4.43;4.07;;;;;;;33.06;54.68;100659.97;5070623;27;69802;-40
2021/05/20 05:03:23;;;;;;;7.20;4.53;;;;;;;33.07;55.14;100657.03;5060532;28;66558;-39
2021/05/20 05:05:56;;;;;;;4.95;4.40;;;;;;;33.09;54.72;100654.03;5065393;27;69934;-39
2021/05/20 05:08:31;;;;;;;4.63;4.22;;;;;;;33.10;54.74;100644.84;5069351;27;65178;-39
2021/05/20 05:11:04;;;;;;;4.95;4.45;;;;;;;33.13;54.73;100644.34;5067780;28;70192;-39
2021/05/20 05:13:38;;;;;;;4.88;4.40;;;;;;;33.13;54.74;100638.94;5070906;28;66174;-40
2021/05/20 05:16:10;;;;;;;5.07;4.57;;;;;;;33.17;54.97;100629.22;5069677;27;70074;-40
2021/05/20 05:18:50;;;;;;;4.55;4.15;;;;;;;33.17;55.06;100634.63;5069296;27;65869;-40
2021/05/20 05:21:24;;;;;;;4.00;3.70;;;;;;;33.20;54.57;100626.00;5065870;27;69326;-40
2021/05/20 05:23:56;;;;;;;4.82;3.85;;;;;;;33.21;54.69;100624.94;5068406;27;66202;-40
2021/05/20 05:26:31;;;;;;;4.38;4.07;;;;;;;33.20;54.42;100606.97;5061965;27;70193;-40
2021/05/20 05:29:02;;;;;;;3.47;3.28;;;;;;;33.25;54.50;100607.06;5074855;27;66344;-40
2021/05/20 05:31:36;;;;;;;5.07;3.40;;;;;;;33.27;54.49;100604.94;5065113;28;68897;-41
2021/05/20 05:34:10;;;;;;;3.42;3.22;;;;;;;33.29;54.71;100600.09;5070906;27;64854;-40
2021/05/20 05:36:41;;;;;;;3.67;3.38;;;;;;;33.31;54.70;100608.00;5061808;27;69787;-39
2021/05/20 05:39:16;;;;;;;3.67;3.38;;;;;;;33.32;54.54;100594.16;5063359;28;65494;-39
2021/05/20 05:41:53;;;;;;;3.60;3.28;;;;;;;33.36;54.53;100595.31;5070713;27;69608;-39
2021/05/20 05:44:24;;;;;;;3.58;3.28;;;;;;;33.37;54.52;100582.53;5069181;27;65126;-40
2021/05/20 05:46:55;;;;;;;3.57;3.27;;;;;;;33.40;54.55;100584.78;5069231;27;70066;-40
2021/05/20 05:49:30;;;;;;;3.38;3.17;;;;;;;33.44;54.57;100579.69;5061632;27;66205;-40
2021/05/20 05:52:06;;;;;;;3.45;3.25;;;;;;;33.46;54.53;100569.38;5069256;27;70341;-40
2021/05/20 05:54:39;;;;;;;3.95;3.55;;;;;;;33.45;54.37;100567.72;5062456;27;65471;-40
2021/05/20 05:57:16;;;;;;;3.75;3.45;;;;;;;33.50;54.37;100567.81;5071385;28;70458;-40
2021/05/20 05:59:49;;;;;;;3.23;2.93;;;;;;;33.52;54.38;100560.25;5074345;27;66108;-40
2021/05/20 06:02:23;;;;;;;3.33;3.13;;;;;;;33.49;54.42;100539.81;5045519;28;69684;-40
2021/05/20 06:04:55;;;;;;;3.25;2.95;;;;;;;33.58;54.71;100553.84;5070006;27;66558;-40
2021/05/20 06:07:35;;;;;;;3.20;3.00;;;;;;;33.59;54.17;100539.19;5063149;27;71070;-41
2021/05/20 06:10:21;;;;;;;3.03;2.83;;;;;;;33.62;54.22;100538.69;5064297;28;66723;-39
2021/05/20 06:12:55;;;;;;;2.80;2.60;;;;;;;33.64;53.98;100527.56;5068998;27;70451;-40
2021/05/20 06:15:33;;;;;;;3.10;2.90;;;;;;;33.64;53.81;100535.72;5070136;27;66697;-39
2021/05/20 06:18:05;;;;;;;2.88;2.67;;;;;;;33.72;54.11;100527.97;5058410;27;69910;-39
2021/05/20 06:20:41;;;;;;;2.83;2.63;;;;;;;33.73;54.00;100524.16;5065088;27;65782;-40
2021/05/20 06:23:11;;;;;;;3.53;2.60;;;;;;;33.78;53.85;100521.53;5065256;28;71379;-40
2021/05/20 06:25:45;;;;;;;2.40;2.20;;;;;;;33.83;53.74;100522.69;5069573;28;66492;-40
2021/05/20 06:28:18;;;;;;;2.55;2.45;;;;;;;33.84;53.64;100518.88;5070547;28;70227;-40
2021/05/20 06:30:48;;;;;;;3.03;2.50;;;;;;;33.91;53.70;100519.56;5063354;27;65935;-41
2021/05/20 06:33:22;;;;;;;2.90;2.70;;;;;;;33.95;53.43;100516.06;5065448;27;69710;-41
2021/05/20 06:35:54;;;;;;;2.58;2.38;;;;;;;33.98;53.51;100514.75;5068875;27;65989;-39
2021/05/20 06:38:29;;;;;;;2.50;2.30;;;;;;;34.00;53.55;100507.97;5065995;28;70095;-40
2021/05/20 06:41:08;;;;;;;2.40;2.15;;;;;;;33.99;53.32;100497.34;5066773;28;66105;-40
2021/05/20 06:43:53;;;;;;;2.50;2.30;;;;;;;34.06;53.33;100506.19;5061732;28;69860;-40
2021/05/20 06:46:24;;;;;;;2.45;2.25;;;;;;;34.15;53.26;100493.78;5068357;27;66146;-40
2021/05/20 06:49:08;;;;;;;2.28;2.17;;;;;;;34.20;53.11;100496.56;5066333;27;69774;-40
2021/05/20 06:51:39;;;;;;;2.45;2.25;;;;;;;34.20;53.53;100485.69;5068877;27;65126;-40
2021/05/20 06:54:15;;;;;;;2.90;2.42;;;;;;;34.26;52.76;100479.22;5067424;28;70606;-40
2021/05/20 06:56:49;;;;;;;2.40;2.17;;;;;;;34.31;52.98;100469.50;5070741;27;65879;-40
2021/05/20 07:02:11;;;;;;;2.25;2.05;;;;;;;34.42;52.74;100461.19;5063947;27;66197;-40
2021/05/20 07:04:41;;;;;;;3.22;1.80;;;;;;;34.48;52.82;100464.78;5067894;27;70099;-40
2021/05/20 07:07:13;;;;;;;5.73;2.00;;;;;;;34.45;52.63;100448.97;5071828;27;65389;-40
2021/05/20 07:09:44;;;;;;;;;;;;;;;34.25;52.72;100453.09;5068171;27;69739;-40
2021/05/20 07:12:19;;;;;;;2.22;2.03;;;;;;;34.57;52.54;100451.56;5068561;28;65236;-40
2021/05/20 07:14:58;;;;;;;6.35;2.05;;;;;;;34.63;52.50;100447.81;5069203;27;69803;-40
2021/05/20 07:17:34;;;;;;;1.80;1.70;;;;;;;34.67;52.30;100443.50;5066877;28;66033;-40
2021/05/20 07:20:09;;;;;;;4.60;1.70;;;;;;;34.70;52.56;100451.97;5066242;28;69524;-40
2021/05/20 07:22:41;;;;;;;2.28;1.90;;;;;;;34.70;52.40;100445.72;5067340;27;65910;-40
2021/05/20 07:25:13;;;;;;;1.97;1.77;;;;;;;34.72;52.10;100437.31;5072940;27;70179;-40
2021/05/20 07:27:45;;;;;;;2.22;1.70;;;;;;;34.77;52.40;100431.88;5070124;27;66549;-40
2021/05/20 07:30:19;;;;;;;1.88;1.77;;;;;;;34.78;52.06;100428.09;5066166;27;71107;-40
2021/05/20 07:32:50;;;;;;;1.98;1.70;;;;;;;34.78;51.99;100430.81;5075072;27;65668;-39
2021/05/20 07:35:22;;;;;;;1.70;1.50;;;;;;;34.78;52.19;100420.72;5073313;27;69886;-39
2021/05/20 07:38:10;;;;;;;2.53;1.58;;;;;;;34.83;52.25;100423.50;5067779;27;66108;-40
2021/05/20 07:40:48;;;;;;;1.52;1.42;;;;;;;34.87;51.98;100418.34;5072152;27;67895;-39
2021/05/20 07:43:19;;;;;;;1.40;1.30;;;;;;;34.84;51.98;100408.78;5067264;27;66401;-39
2021/05/20 07:45:53;;;;;;;2.53;1.55;;;;;;;34.88;51.89;100409.09;5073862;27;70228;-39
2021/05/20 07:48:32;;;;;;;1.45;1.35;;;;;;;34.90;51.99;100417.84;5075076;27;66278;-39
2021/05/20 07:51:08;;;;;;;1.65;1.55;;;;;;;34.91;52.08;100414.06;5064719;28;69973;-39
2021/05/20 07:53:39;;;;;;;1.70;1.60;;;;;;;34.92;51.86;100405.59;5065082;28;65254;-40
2021/05/20 07:56:09;;;;;;;1.58;1.38;;;;;;;34.92;51.86;100411.03;5070749;28;69266;-39
2021/05/20 07:58:44;;;;;;;3.55;1.70;;;;;;;34.94;51.90;100408.06;5064605;28;67024;-40
2021/05/20 08:01:15;;;;;;;1.60;1.50;;;;;;;34.93;51.94;100406.41;5069880;27;70127;-39
2021/05/20 08:03:56;;;;;;;1.67;1.40;;;;;;;34.94;51.85;100410.81;5069897;28;65867;-40
2021/05/20 08:06:36;;;;;;;2.15;1.65;;;;;;;34.95;51.91;100401.53;5066750;27;69876;-40
2021/05/20 08:12:08;;;;;;;1.50;1.30;;;;;;;34.89;51.85;100376.16;5071404;27;69437;-40
2021/05/20 08:14:39;;;;;;;1.67;1.20;;;;;;;34.97;51.91;100385.75;5069577;27;65985;-39
2021/05/20 08:17:10;;;;;;;1.67;1.57;;;;;;;34.97;51.84;100380.31;5066032;28;70659;-40
2021/05/20 08:19:43;;;;;;;1.25;1.17;;;;;;;34.98;51.62;100386.56;5064397;28;65241;-38
2021/05/20 08:22:13;;;;;;;1.90;1.17;;;;;;;34.95;51.86;100376.19;5068687;28;69518;-40
2021/05/20 08:24:45;;;;;;;2.80;1.40;;;;;;;35.01;52.10;100381.41;5074198;27;65447;-40
2021/05/20 08:27:24;;;;;;;2.67;1.48;;;;;;;35.02;52.27;100383.06;5068703;27;69132;-38
2021/05/20 08:29:56;;;;;;;1.38;1.27;;;;;;;35.02;51.98;100374.91;5052261;28;66059;-40
2021/05/20 08:32:30;;;;;;;3.65;1.13;;;;;;;34.93;52.03;100351.91;5072087;27;69090;-41
2021/05/20 08:35:02;;;;;;;3.08;1.20;;;;;;;35.01;52.16;100369.69;5063112;28;65919;-40
2021/05/20 08:37:34;;;;;;;1.40;1.30;;;;;;;34.96;52.03;100362.28;5071215;27;69026;-40
2021/05/20 08:40:09;;;;;;;1.30;1.20;;;;;;;35.04;51.74;100369.16;5072661;27;65629;-39
2021/05/20 08:42:40;;;;;;;2.22;1.20;;;;;;;35.00;51.82;100355.25;5069485;27;69724;-41
2021/05/20 08:45:21;;;;;;;1.45;1.30;;;;;;;34.83;51.59;100327.31;5070436;28;66061;-40
2021/05/20 08:47:54;;;;;;;1.55;1.35;;;;;;;35.03;51.92;100357.44;5070728;27;69471;-39
2021/05/20 08:50:28;;;;;;;1.30;1.20;;;;;;;34.79;51.99;100318.00;5070198;28;65872;-39
2021/05/20 08:53:01;;;;;;;1.58;1.45;;;;;;;35.03;51.82;100360.19;5064139;27;69463;-40
2021/05/20 08:55:34;;;;;;;1.30;1.20;;;;;;;35.03;51.77;100368.34;5068481;28;66904;-40
2021/05/20 08:58:09;;;;;;;2.35;1.20;;;;;;;34.54;51.96;100284.00;5064260;28;70060;-39
2021/05/20 09:00:40;;;;;;;1.40;1.30;;;;;;;34.98;51.97;100354.69;5061231;27;65500;-40
2021/05/20 09:03:21;;;;;;;1.15;1.05;;;;;;;35.05;52.03;100360.75;5068664;27;69190;-40
2021/05/20 09:05:59;;;;;;;1.60;1.30;;;;;;;34.92;51.78;100344.81;5067249;27;66300;-39
2021/05/20 09:08:35;;;;;;;1.55;1.10;;;;;;;35.08;51.62;100364.88;5066521;27;70017;-39
2021/05/20 09:11:07;;;;;;;1.70;1.30;;;;;;;35.07;52.21;100358.59;5074677;27;65304;-40
2021/05/20 09:13:48;;;;;;;1.40;1.30;;;;;;;35.06;51.84;100356.13;5075298;27;69263;-39
2021/05/20 09:16:24;;;;;;;2.55;1.60;;;;;;;35.07;52.14;100358.59;5068226;27;65977;-39
2021/05/20 09:19:00;;;;;;;1.73;1.40;;;;;;;35.06;51.90;100356.94;5075431;27;69208;-39
2021/05/20 09:21:34;;;;;;;2.53;0.98;;;;;;;35.02;52.25;100349.53;5066551;27;66062;-40
2021/05/20 09:24:09;;;;;;;2.03;1.25;;;;;;;35.08;52.13;100360.25;5074817;27;69884;-40
2021/05/20 09:26:44;;;;;;;2.33;1.23;;;;;;;35.11;51.98;100359.72;5073547;27;65470;-40
2021/05/20 09:29:17;;;;;;;1.20;1.10;;;;;;;35.11;52.19;100359.72;5066331;27;69228;-40
2021/05/20 09:31:50;;;;;;;4.35;1.60;;;;;;;35.05;52.34;100351.72;5072547;27;66022;-40
2021/05/20 09:34:28;;;;;;;4.63;0.93;;;;;;;35.09;52.09;100352.88;5067584;28;69846;-40
2021/05/20 09:37:00;;;;;;;1.58;1.20;;;;;;;35.02;52.15;100347.63;5057011;27;65899;-39
2021/05/20 09:39:33;;;;;;;3.28;1.02;;;;;;;35.08;52.04;100365.69;5065398;27;69353;-40
2021/05/20 09:42:15;;;;;;;6.47;1.27;;;;;;;35.08;51.96;100373.88;5069315;27;66251;-40
2021/05/20 09:44:46;;;;;;;2.58;1.20;;;;;;;35.08;52.19;100373.88;5069566;27;70026;-40
2021/05/20 09:47:19;;;;;;;1.20;1.02;;;;;;;35.08;52.33;100371.16;5068086;27;65453;-40
2021/05/20 09:50:01;;;;;;;2.45;1.30;;;;;;;35.08;52.12;100379.31;5063197;27;69944;-40
2021/05/20 09:52:32;;;;;;;2.00;1.20;;;;;;;35.07;52.33;100374.94;5068137;27;65390;-40
2021/05/20 09:55:24;;;;;;;1.77;1.40;;;;;;;34.80;52.22;100336.00;5069795;27;69953;-40
2021/05/20 09:57:57;;;;;;;3.75;1.30;;;;;;;35.08;52.67;100381.25;5067252;27;66643;-40
2021/05/20 10:00:27;;;;;;;3.65;1.20;;;;;;;35.08;52.35;100387.50;5070955;28;69743;-39
2021/05/20 10:03:04;;;;;;;1.80;1.30;;;;;;;35.02;52.52;100377.63;5051807;27;65520;-40
2021/05/20 10:05:36;;;;;;;1.60;1.50;;;;;;;35.06;52.27;100395.13;5065297;28;70159;-40
2021/05/20 10:08:10;;;;;;;3.67;1.77;;;;;;;35.02;52.36;100393.13;5066665;27;66616;-40
2021/05/20 10:10:49;;;;;;;2.25;1.35;;;;;;;34.92;52.56;100393.88;5063863;27;69882;-40
2021/05/20 10:13:27;;;;;;;5.78;1.60;;;;;;;35.05;52.42;100431.63;5065849;27;65264;-40
2021/05/20 10:15:58;;;;;;;1.75;1.52;;;;;;;34.78;52.48;100387.22;5067541;28;69279;-39
2021/05/20 10:18:42;;;;;;;18.75;5.28;;;;;;;34.99;52.02;100446.25;5067036;28;65145;-39
2021/05/20 10:21:13;;;;;;;12.77;4.57;;;;;;;34.95;51.64;100447.88;5066508;28;69258;-38
2021/05/20 10:23:44;;;;;;;12.90;4.60;;;;;;;34.89;51.32;100452.44;5070977;28;65319;-39
2021/05/20 10:26:15;;;;;;;22.33;4.67;;;;;;;34.85;52.47;100453.22;5062594;28;70446;-39
2021/05/20 10:28:47;;;;;;;19.38;4.85;;;;;;;34.79;52.10;100463.22;5065434;28;66168;-39
2021/05/20 10:31:18;;;;;;;11.38;4.78;;;;;;;34.72;52.69;100467.28;5062636;28;70053;-37
2021/05/20 10:33:49;;;;;;;11.80;4.55;;;;;;;34.59;52.31;100463.84;5062182;27;66251;-39
2021/05/20 10:36:24;;;;;;;13.45;4.72;;;;;;;34.66;52.21;100494.44;5065178;27;69112;-38
2021/05/20 10:38:55;;;;;;;22.02;4.43;;;;;;;34.62;52.56;100496.03;5066725;27;65462;-38
2021/05/20 10:41:27;;;;;;;13.18;3.63;;;;;;;34.42;51.66;100479.41;5067061;27;70240;-38
2021/05/20 10:44:04;;;;;;;;;;;;;;;34.24;52.55;100502.31;5068566;27;65729;-38
2021/05/20 10:46:55;;;;;;;15.77;4.30;;;;;;;34.39;51.75;100509.88;5055585;28;70166;-39
2021/05/20 10:49:44;;;;;;;;;;;;;;;34.21;52.05;100514.56;5069526;27;65914;-39
2021/05/20 10:52:39;;;;;;;25.42;4.78;;;;;;;34.37;51.35;100525.66;5068182;28;69878;-38
2021/05/20 10:55:14;;;;;;;28.25;5.10;;;;;;;34.43;51.18;100527.34;5063794;28;65994;-39
2021/05/20 10:57:54;;;;;;;17.77;4.32;;;;;;;34.40;50.99;100534.13;5068657;27;69313;-39
2021/05/20 11:00:34;;;;;;;41.15;4.47;;;;;;;34.41;50.57;100540.41;5069090;28;65973;-39
2021/05/20 11:03:06;;;;;;;34.15;4.70;;;;;;;34.37;50.54;100552.88;5068408;27;70501;-39
2021/05/20 11:05:41;;;;;;;26.67;5.15;;;;;;;34.38;50.76;100563.53;5070460;27;65175;-39
2021/05/20 11:08:27;;;;;;;25.92;5.38;;;;;;;34.33;50.58;100565.38;5069856;27;69841;-38
2021/05/20 11:11:01;;;;;;;10.32;5.03;;;;;;;34.35;52.15;100571.34;5070277;27;65849;-37
2021/05/20 11:13:45;;;;;;;12.18;4.88;;;;;;;34.16;53.79;100541.72;5063652;28;70433;-36
2021/05/20 11:16:38;;;;;;;16.08;4.50;;;;;;;34.10;53.78;100525.53;5067180;27;66405;-35
2021/05/20 11:19:26;;;;;;;16.98;5.05;;;;;;;34.38;53.90;100559.97;5070165;28;69187;-37
2021/05/20 11:22:07;;;;;;;10.43;4.03;;;;;;;34.37;53.82;100561.03;5065403;28;65487;-37
2021/05/20 11:24:42;;;;;;;11.75;4.75;;;;;;;34.11;54.21;100514.44;5070162;27;70336;-37
2021/05/20 11:27:23;;;;;;;8.02;3.72;;;;;;;34.38;54.20;100574.41;5074022;27;66869;-36
2021/05/20 11:29:55;;;;;;;6.85;3.78;;;;;;;34.39;54.54;100569.78;5062592;27;70163;-36
2021/05/20 11:32:33;;;;;;;8.63;3.80;;;;;;;34.38;54.51;100582.59;5065256;28;65276;-36
2021/05/20 11:35:32;;;;;;;13.05;3.88;;;;;;;34.15;54.55;100550.94;5073689;27;70105;-36
2021/05/20 11:38:03;;;;;;;6.63;3.70;;;;;;;34.33;54.63;100593.41;5071148;28;65275;-36
2021/05/20 11:40:37;;;;;;;8.50;3.25;;;;;;;34.35;54.62;100607.59;5075749;27;70208;-37
2021/05/20 11:43:10;;;;;;;5.82;3.30;;;;;;;34.09;54.87;100567.47;5067931;27;66526;-36
2021/05/20 11:45:41;;;;;;;6.15;3.63;;;;;;;34.35;55.05;100606.75;5073205;27;70255;-36
2021/05/20 11:48:17;;;;;;;5.32;3.50;;;;;;;33.85;55.01;100539.56;5067011;27;65736;-36
2021/05/20 11:50:54;;;;;;;7.03;3.58;;;;;;;34.35;54.85;100628.53;5059398;28;69935;-36
2021/05/20 11:53:28;;;;;;;3.70;3.20;;;;;;;34.35;55.28;100644.88;5065385;27;66521;-35
2021/05/20 11:56:03;;;;;;;10.98;3.58;;;;;;;34.31;55.57;100649.19;5061061;27;70280;-37
2021/05/20 11:58:45;;;;;;;6.20;3.05;;;;;;;34.06;55.92;100617.78;5066480;27;66515;-37